createdAt,value
2024-05-09T00:01:31.958Z,10.20
2024-05-09T00:04:07.632Z,10.12
2024-05-09T00:06:42.876Z,10.09
2024-05-09T00:09:20.827Z,10.10
2024-05-09T00:11:56.121Z,10.19
2024-05-09T00:14:31.356Z,10.16
2024-05-09T00:17:07.006Z,10.15
2024-05-09T00:19:47.054Z,10.18
2024-05-09T00:22:24.602Z,10.13
2024-05-09T00:25:02.442Z,10.08
2024-05-09T00:27:42.475Z,10.01
2024-05-09T00:30:24.435Z,9.89
2024-05-09T00:33:09.420Z,9.86
2024-05-09T00:35:45.802Z,9.85
2024-05-09T00:38:21.134Z,9.91
2024-05-09T00:40:58.987Z,9.95
2024-05-09T00:43:34.315Z,10.01
2024-05-09T00:46:10.101Z,9.96
2024-05-09T00:48:45.614Z,10.01
2024-05-09T00:51:21.146Z,10.01
2024-05-09T00:53:56.493Z,10.09
2024-05-09T00:56:38.240Z,10.15
2024-05-09T00:59:13.890Z,10.10
2024-05-09T01:01:50.302Z,10.12
2024-05-09T01:04:25.673Z,10.13
2024-05-09T01:07:00.809Z,10.22
2024-05-09T01:09:36.055Z,10.28
2024-05-09T01:12:14.160Z,10.33
2024-05-09T01:14:49.673Z,10.45
2024-05-09T01:17:25.015Z,10.53
2024-05-09T01:20:00.349Z,10.55
2024-05-09T01:22:38.543Z,10.55
2024-05-09T01:25:16.467Z,10.59
2024-05-09T01:27:51.633Z,10.70
2024-05-09T01:30:33.801Z,10.79
2024-05-09T01:33:12.546Z,10.79
2024-05-09T01:35:48.339Z,10.73
2024-05-09T01:38:23.583Z,10.70
2024-05-09T01:41:01.640Z,10.74
2024-05-09T01:43:36.806Z,10.74
2024-05-09T01:46:19.501Z,10.60
2024-05-09T01:48:54.647Z,10.49
2024-05-09T01:51:29.953Z,10.49
2024-05-09T01:54:06.041Z,10.52
2024-05-09T01:56:43.776Z,10.33
2024-05-09T01:59:18.990Z,10.30
2024-05-09T02:01:56.999Z,10.10
2024-05-09T02:04:33.384Z,10.02
2024-05-09T02:07:08.644Z,9.98
2024-05-09T02:09:43.944Z,9.96
2024-05-09T02:12:21.815Z,9.95
2024-05-09T02:14:57.067Z,9.86
2024-05-09T02:17:32.513Z,9.89
2024-05-09T02:20:13.215Z,9.86
2024-05-09T02:22:51.353Z,9.77
2024-05-09T02:25:29.582Z,9.70
2024-05-09T02:28:10.292Z,9.71
2024-05-09T02:30:45.434Z,9.68
2024-05-09T02:33:20.746Z,9.54
2024-05-09T02:35:55.911Z,9.61
2024-05-09T02:38:28.602Z,9.50
2024-05-09T02:41:03.888Z,9.48
2024-05-09T02:43:39.131Z,9.45
2024-05-09T02:46:14.276Z,9.57
2024-05-09T02:48:46.862Z,9.61
2024-05-09T02:51:22.078Z,9.55
2024-05-09T02:53:54.674Z,9.48
2024-05-09T02:56:29.941Z,9.43
2024-05-09T02:59:05.246Z,9.43
2024-05-09T03:01:40.499Z,9.59
2024-05-09T03:04:13.081Z,9.55
2024-05-09T03:06:48.297Z,9.38
2024-05-09T03:09:21.614Z,9.40
2024-05-09T03:11:56.922Z,9.47
2024-05-09T03:14:32.243Z,9.35
2024-05-09T03:17:07.862Z,9.27
2024-05-09T03:19:40.460Z,9.21
2024-05-09T03:22:15.627Z,9.14
2024-05-09T03:24:48.061Z,9.16
2024-05-09T03:27:24.938Z,9.33
2024-05-09T03:30:00.093Z,9.33
2024-05-09T03:32:35.463Z,9.20
2024-05-09T03:35:08.150Z,9.09
2024-05-09T03:37:43.312Z,9.09
2024-05-09T03:40:23.652Z,9.02
2024-05-09T03:43:01.623Z,8.96
2024-05-09T03:45:39.395Z,9.07
2024-05-09T03:48:12.217Z,9.14
2024-05-09T03:50:48.001Z,9.10
2024-05-09T03:53:20.671Z,9.04
2024-05-09T03:55:56.990Z,8.96
2024-05-09T03:58:29.625Z,8.89
2024-05-09T04:01:10.164Z,8.82
2024-05-09T04:03:42.904Z,8.72
2024-05-09T04:06:23.719Z,8.76
2024-05-09T04:08:56.273Z,8.89
2024-05-09T04:11:31.622Z,8.80
2024-05-09T04:14:06.693Z,8.86
2024-05-09T04:16:44.660Z,8.83
2024-05-09T04:19:17.536Z,8.84
2024-05-09T04:21:53.029Z,8.90
2024-05-09T04:24:25.646Z,8.86
2024-05-09T04:27:00.831Z,8.97
2024-05-09T04:29:37.463Z,9.03
2024-05-09T04:32:15.406Z,9.02
2024-05-09T04:34:47.959Z,9.04
2024-05-09T04:37:23.223Z,9.03
2024-05-09T04:39:55.763Z,9.13
2024-05-09T04:42:30.928Z,9.28
2024-05-09T04:45:03.865Z,9.35
2024-05-09T04:47:41.959Z,9.47
2024-05-09T04:50:21.215Z,9.75
2024-05-09T04:53:05.123Z,10.05
2024-05-09T04:55:38.263Z,10.16
2024-05-09T04:58:14.259Z,10.12
2024-05-09T05:00:48.490Z,10.20
2024-05-09T05:03:26.524Z,10.30
2024-05-09T05:05:59.199Z,10.46
2024-05-09T05:08:34.644Z,10.64
2024-05-09T05:11:07.321Z,10.84
2024-05-09T05:13:42.502Z,11.03
2024-05-09T05:16:19.443Z,11.17
2024-05-09T05:18:54.815Z,11.25
2024-05-09T05:21:30.281Z,11.17
2024-05-09T05:24:02.856Z,11.10
2024-05-09T05:26:39.096Z,10.96
2024-05-09T05:29:11.743Z,10.84
2024-05-09T05:31:46.986Z,10.84
2024-05-09T05:34:22.337Z,10.84
2024-05-09T05:36:57.528Z,11.01
2024-05-09T05:39:30.133Z,11.17
2024-05-09T05:42:05.390Z,11.52
2024-05-09T05:44:38.828Z,11.78
2024-05-09T05:47:14.040Z,11.97
2024-05-09T05:49:49.359Z,12.02
2024-05-09T05:52:27.748Z,12.06
2024-05-09T05:55:00.353Z,12.15
2024-05-09T05:57:35.575Z,12.17
2024-05-09T06:00:09.833Z,12.25
2024-05-09T06:02:48.910Z,12.32
2024-05-09T06:05:26.043Z,12.41
2024-05-09T06:08:02.830Z,12.61
2024-05-09T06:10:39.199Z,12.65
2024-05-09T06:13:18.484Z,12.70
2024-05-09T06:15:50.912Z,12.91
2024-05-09T06:18:26.319Z,12.88
2024-05-09T06:21:01.872Z,12.91
2024-05-09T06:23:37.172Z,12.92
2024-05-09T06:26:10.364Z,12.99
2024-05-09T06:28:45.633Z,13.15
2024-05-09T06:31:18.182Z,13.18
2024-05-09T06:33:53.741Z,13.39
2024-05-09T06:36:31.281Z,13.49
2024-05-09T06:39:06.753Z,13.34
2024-05-09T06:41:41.648Z,13.49
2024-05-09T06:44:17.044Z,13.69
2024-05-09T06:46:49.759Z,13.74
2024-05-09T06:49:29.100Z,14.10
2024-05-09T06:52:04.942Z,14.47
2024-05-09T06:54:40.294Z,14.60
2024-05-09T06:57:12.994Z,14.82
2024-05-09T06:59:51.271Z,15.00
2024-05-09T07:02:23.847Z,15.06
2024-05-09T07:04:59.224Z,15.22
2024-05-09T07:07:34.446Z,15.28
2024-05-09T07:10:14.852Z,15.39
2024-05-09T07:12:50.910Z,15.70
2024-05-09T07:15:26.057Z,16.15
2024-05-09T07:17:58.753Z,16.28
2024-05-09T07:20:36.472Z,16.68
2024-05-09T07:23:12.925Z,17.26
2024-05-09T07:25:48.515Z,17.77
2024-05-09T07:28:21.676Z,17.80
2024-05-09T07:30:56.859Z,17.90
2024-05-09T07:33:29.473Z,17.98
2024-05-09T07:36:04.758Z,17.95
2024-05-09T07:38:39.936Z,17.71
2024-05-09T07:41:15.241Z,17.90
2024-05-09T07:43:48.852Z,18.28
2024-05-09T07:47:17.267Z,18.53
2024-05-09T07:50:55.810Z,18.31
2024-05-09T07:53:29.717Z,18.72
2024-05-09T07:55:09.100Z,19.06
2024-05-09T07:57:44.318Z,19.08
2024-05-09T08:00:23.520Z,19.53
2024-05-09T08:03:02.267Z,19.35
2024-05-09T08:05:34.938Z,19.30
2024-05-09T08:08:11.414Z,19.78
2024-05-09T08:10:46.719Z,20.05
2024-05-09T08:13:22.180Z,20.04
2024-05-09T08:15:54.807Z,20.15
2024-05-09T08:18:30.288Z,20.47
2024-05-09T08:21:02.958Z,20.47
2024-05-09T08:23:40.343Z,20.80
2024-05-09T08:26:18.098Z,20.54
2024-05-09T08:28:50.603Z,20.08
2024-05-09T08:31:25.947Z,20.05
2024-05-09T08:33:58.869Z,20.00
2024-05-09T08:36:34.542Z,19.99
2024-05-09T08:39:07.096Z,20.29
2024-05-09T08:41:46.068Z,20.22
2024-05-09T08:44:19.308Z,20.32
2024-05-09T08:46:54.795Z,20.50
2024-05-09T08:49:27.411Z,20.81
2024-05-09T08:52:02.700Z,21.31
2024-05-09T08:54:35.695Z,20.98
2024-05-09T08:57:16.310Z,20.85
2024-05-09T08:59:50.989Z,20.63
2024-05-09T09:02:27.157Z,20.49
2024-05-09T09:05:06.297Z,20.33
2024-05-09T09:07:42.516Z,20.23
2024-05-09T09:10:24.900Z,20.43
2024-05-09T09:13:09.926Z,20.80
2024-05-09T09:15:50.051Z,21.42
2024-05-09T09:18:29.344Z,21.39
2024-05-09T09:21:02.959Z,20.69
2024-05-09T09:23:38.287Z,20.93
2024-05-09T09:26:16.152Z,21.07
2024-05-09T09:28:54.835Z,20.64
2024-05-09T09:31:27.462Z,21.12
2024-05-09T09:34:10.041Z,21.10
2024-05-09T09:36:44.435Z,21.25
2024-05-09T09:39:23.269Z,21.65
2024-05-09T09:41:58.983Z,21.00
2024-05-09T09:44:39.575Z,20.50
2024-05-09T09:47:17.766Z,20.30
2024-05-09T09:49:53.913Z,20.69
2024-05-09T09:52:28.296Z,21.08
2024-05-09T09:55:04.834Z,21.23
2024-05-09T09:57:40.428Z,21.93
2024-05-09T10:00:24.622Z,22.32
2024-05-09T10:03:02.985Z,22.17
2024-05-09T10:05:44.003Z,22.17
2024-05-09T10:08:22.173Z,22.51
2024-05-09T10:10:55.708Z,22.90
2024-05-09T10:13:36.555Z,23.00
2024-05-09T10:16:12.476Z,22.77
2024-05-09T10:18:47.832Z,22.36
2024-05-09T10:21:21.465Z,21.45
2024-05-09T10:24:01.532Z,21.05
2024-05-09T10:26:36.006Z,21.52
2024-05-09T10:29:15.684Z,21.90
2024-05-09T10:31:50.903Z,22.00
2024-05-09T10:34:26.903Z,21.63
2024-05-09T10:37:02.771Z,21.14
2024-05-09T10:39:42.819Z,21.05
2024-05-09T10:42:19.913Z,21.65
2024-05-09T10:44:55.427Z,21.88
2024-05-09T10:47:30.673Z,22.27
2024-05-09T10:50:15.672Z,22.56
2024-05-09T10:52:54.852Z,23.24
2024-05-09T10:55:30.993Z,23.85
2024-05-09T10:58:16.008Z,23.96
2024-05-09T11:00:52.358Z,23.56
2024-05-09T11:03:28.178Z,23.12
2024-05-09T11:06:04.095Z,23.59
2024-05-09T11:08:37.288Z,24.06
2024-05-09T11:11:13.737Z,23.07
2024-05-09T11:13:46.228Z,22.94
2024-05-09T11:16:22.689Z,23.63
2024-05-09T11:18:59.035Z,23.53
2024-05-09T11:21:34.962Z,22.75
2024-05-09T11:24:11.012Z,23.08
2024-05-09T11:26:46.691Z,23.62
2024-05-09T11:29:19.838Z,23.65
2024-05-09T11:32:00.278Z,23.31
2024-05-09T11:34:35.730Z,23.85
2024-05-09T11:37:13.407Z,24.37
2024-05-09T11:39:46.049Z,24.69
2024-05-09T11:42:22.525Z,24.67
2024-05-09T11:44:54.997Z,23.49
2024-05-09T11:47:30.625Z,23.77
2024-05-09T11:50:08.225Z,24.05
2024-05-09T11:52:45.410Z,23.70
2024-05-09T11:55:18.874Z,24.21
2024-05-09T11:57:54.396Z,24.65
2024-05-09T12:00:34.106Z,24.87
2024-05-09T12:03:12.396Z,25.01
2024-05-09T12:05:47.651Z,24.07
2024-05-09T12:08:23.105Z,23.04
2024-05-09T12:10:56.039Z,23.66
2024-05-09T12:13:33.910Z,24.05
2024-05-09T12:16:07.119Z,24.64
2024-05-09T12:18:42.463Z,24.92
2024-05-09T12:21:17.676Z,25.23
2024-05-09T12:23:52.865Z,25.23
2024-05-09T12:26:25.631Z,25.07
2024-05-09T12:29:00.823Z,24.56
2024-05-09T12:31:33.542Z,24.58
2024-05-09T12:34:08.824Z,23.76
2024-05-09T12:36:44.173Z,23.73
2024-05-09T12:39:19.432Z,23.48
2024-05-09T12:41:52.178Z,24.41
2024-05-09T12:44:27.323Z,25.33
2024-05-09T12:47:00.074Z,25.45
2024-05-09T12:49:35.602Z,24.60
2024-05-09T12:52:10.909Z,24.37
2024-05-09T12:54:46.264Z,24.65
2024-05-09T12:57:18.870Z,24.78
2024-05-09T12:59:54.204Z,25.08
2024-05-09T13:02:26.788Z,25.76
2024-05-09T13:05:02.236Z,26.43
2024-05-09T13:07:38.647Z,25.87
2024-05-09T13:10:19.815Z,24.65
2024-05-09T13:12:55.658Z,24.38
2024-05-09T13:15:31.580Z,23.35
2024-05-09T13:18:05.257Z,22.80
2024-05-09T13:20:40.599Z,22.61
2024-05-09T13:23:15.758Z,23.15
2024-05-09T13:25:50.962Z,23.00
2024-05-09T13:28:23.636Z,21.93
2024-05-09T13:30:58.964Z,21.79
2024-05-09T13:33:33.454Z,22.51
2024-05-09T13:36:09.999Z,23.38
2024-05-09T13:38:45.247Z,23.76
2024-05-09T13:41:20.438Z,23.85
2024-05-09T13:43:53.694Z,24.46
2024-05-09T13:46:28.954Z,24.40
2024-05-09T13:49:03.322Z,24.50
2024-05-09T13:51:38.553Z,24.94
2024-05-09T13:54:14.059Z,24.89
2024-05-09T13:56:49.184Z,25.47
2024-05-09T13:59:21.658Z,25.84
2024-05-09T14:01:59.451Z,26.44
2024-05-09T14:04:32.486Z,25.84
2024-05-09T14:07:10.223Z,25.93
2024-05-09T14:09:47.210Z,26.20
2024-05-09T14:12:22.415Z,25.15
2024-05-09T14:14:56.551Z,24.81
2024-05-09T14:17:31.943Z,24.95
2024-05-09T14:20:06.260Z,24.61
2024-05-09T14:22:43.347Z,24.14
2024-05-09T14:25:18.753Z,23.80
2024-05-09T14:27:54.320Z,23.76
2024-05-09T14:30:34.821Z,23.59
2024-05-09T14:33:16.434Z,23.46
2024-05-09T14:35:49.205Z,23.00
2024-05-09T14:38:24.490Z,22.95
2024-05-09T14:40:59.607Z,23.01
2024-05-09T14:43:34.892Z,22.90
2024-05-09T14:46:07.608Z,23.14
2024-05-09T14:48:43.207Z,23.14
2024-05-09T14:51:16.564Z,23.37
2024-05-09T14:53:51.757Z,23.37
2024-05-09T14:56:26.894Z,23.52
2024-05-09T14:59:02.135Z,23.97
2024-05-09T15:01:37.663Z,24.17
2024-05-09T15:04:12.894Z,24.16
2024-05-09T15:06:45.859Z,23.97
2024-05-09T15:09:21.160Z,24.09
2024-05-09T15:11:56.554Z,23.95
2024-05-09T15:14:33.932Z,23.90
2024-05-09T15:17:06.513Z,23.69
2024-05-09T15:19:41.851Z,23.37
2024-05-09T15:22:16.491Z,23.28
2024-05-09T15:24:53.878Z,22.90
2024-05-09T15:27:29.072Z,22.83
2024-05-09T15:30:06.936Z,22.81
2024-05-09T15:32:42.826Z,22.97
2024-05-09T15:35:18.071Z,23.02
2024-05-09T15:37:50.751Z,22.81
2024-05-09T15:40:35.914Z,22.80
2024-05-09T15:43:15.000Z,22.70
2024-05-09T15:45:50.328Z,22.68
2024-05-09T15:48:23.149Z,22.71
2024-05-09T15:50:58.510Z,22.65
2024-05-09T15:53:31.092Z,22.70
2024-05-09T15:56:06.401Z,22.41
2024-05-09T15:58:41.690Z,22.32
2024-05-09T16:01:17.000Z,22.30
2024-05-09T16:03:50.073Z,22.14
2024-05-09T16:06:26.141Z,21.79
2024-05-09T16:08:58.813Z,21.83
2024-05-09T16:11:33.992Z,21.88
2024-05-09T16:14:09.258Z,21.71
2024-05-09T16:16:44.889Z,21.76
2024-05-09T16:19:17.516Z,21.74
2024-05-09T16:21:52.731Z,21.59
2024-05-09T16:24:25.230Z,21.45
2024-05-09T16:27:00.933Z,21.32
2024-05-09T16:29:36.406Z,21.32
2024-05-09T16:32:11.615Z,21.32
2024-05-09T16:34:44.114Z,21.34
2024-05-09T16:37:19.404Z,21.39
2024-05-09T16:39:51.971Z,21.32
2024-05-09T16:42:27.177Z,21.38
2024-05-09T16:45:05.112Z,21.27
2024-05-09T16:47:41.177Z,21.04
2024-05-09T16:50:19.230Z,21.05
2024-05-09T16:53:00.114Z,21.07
2024-05-09T16:55:32.987Z,21.07
2024-05-09T16:58:12.640Z,21.11
2024-05-09T17:00:48.177Z,21.04
2024-05-09T17:03:25.058Z,21.04
2024-05-09T17:05:57.993Z,21.00
2024-05-09T17:08:33.247Z,20.93
2024-05-09T17:11:05.817Z,20.95
2024-05-09T17:13:41.173Z,21.01
2024-05-09T17:16:20.924Z,20.90
2024-05-09T17:18:56.278Z,20.87
2024-05-09T17:21:28.810Z,21.01
2024-05-09T17:24:03.932Z,20.94
2024-05-09T17:26:37.155Z,21.01
2024-05-09T17:29:13.037Z,21.03
2024-05-09T17:31:48.161Z,21.23
2024-05-09T17:34:23.384Z,21.11
2024-05-09T17:36:56.221Z,21.11
2024-05-09T17:39:31.404Z,21.01
2024-05-09T17:42:04.275Z,20.97
2024-05-09T17:44:39.411Z,21.08
2024-05-09T17:47:14.773Z,21.08
2024-05-09T17:49:50.038Z,20.93
2024-05-09T17:52:22.667Z,20.93
2024-05-09T17:54:58.499Z,20.95
2024-05-09T17:57:32.075Z,20.87
2024-05-09T18:00:11.525Z,20.98
2024-05-09T18:02:52.376Z,21.05
2024-05-09T18:05:29.078Z,20.85
2024-05-09T18:08:01.708Z,20.85
2024-05-09T18:10:39.759Z,20.94
2024-05-09T18:13:14.983Z,20.94
2024-05-09T18:15:50.383Z,20.81
2024-05-09T18:18:25.684Z,20.77
2024-05-09T18:21:00.931Z,20.80
2024-05-09T18:23:33.877Z,20.80
2024-05-09T18:26:09.141Z,20.64
2024-05-09T18:28:41.711Z,20.42
2024-05-09T18:31:18.229Z,20.37
2024-05-09T18:33:53.505Z,20.20
2024-05-09T18:36:29.617Z,20.15
2024-05-09T18:39:03.203Z,20.06
2024-05-09T18:41:38.303Z,20.02
2024-05-09T18:44:10.822Z,19.89
2024-05-09T18:46:48.256Z,19.81
2024-05-09T18:49:23.700Z,19.77
2024-05-09T18:52:02.037Z,19.59
2024-05-09T18:54:34.612Z,19.51
2024-05-09T18:57:09.919Z,19.35
2024-05-09T18:59:42.508Z,19.17
2024-05-09T19:02:18.149Z,19.10
2024-05-09T19:04:53.586Z,18.99
2024-05-09T19:07:28.852Z,18.86
2024-05-09T19:10:01.471Z,18.73
2024-05-09T19:12:36.685Z,18.67
2024-05-09T19:15:09.322Z,18.57
2024-05-09T19:17:44.863Z,18.43
2024-05-09T19:20:28.166Z,18.33
2024-05-09T19:23:07.921Z,18.22
2024-05-09T19:25:40.683Z,18.15
2024-05-09T19:28:15.932Z,18.08
2024-05-09T19:30:48.627Z,18.05
2024-05-09T19:33:23.973Z,17.98
2024-05-09T19:35:59.138Z,17.91
2024-05-09T19:38:34.754Z,17.88
2024-05-09T19:41:07.271Z,17.88
2024-05-09T19:43:42.725Z,17.77
2024-05-09T19:46:15.545Z,17.75
2024-05-09T19:48:51.049Z,17.70
2024-05-09T19:51:26.269Z,17.63
2024-05-09T19:54:01.372Z,17.51
2024-05-09T19:56:34.152Z,17.37
2024-05-09T19:59:09.515Z,17.33
2024-05-09T20:01:42.377Z,17.23
2024-05-09T20:04:17.808Z,17.19
2024-05-09T20:06:53.399Z,17.12
2024-05-09T20:09:28.510Z,16.99
2024-05-09T20:12:01.111Z,16.97
2024-05-09T20:14:36.261Z,16.93
2024-05-09T20:17:08.834Z,16.87
2024-05-09T20:19:46.081Z,16.87
2024-05-09T20:22:21.367Z,16.82
2024-05-09T20:24:56.771Z,16.68
2024-05-09T20:27:29.385Z,16.65
2024-05-09T20:30:09.732Z,16.51
2024-05-09T20:32:44.688Z,16.29
2024-05-09T20:35:19.832Z,16.20
2024-05-09T20:37:57.362Z,16.08
2024-05-09T20:40:37.146Z,15.98
2024-05-09T20:43:11.963Z,15.83
2024-05-09T20:45:47.510Z,15.67
2024-05-09T20:48:20.191Z,15.64
2024-05-09T20:50:55.438Z,15.60
2024-05-09T20:53:30.610Z,15.53
2024-05-09T20:56:05.793Z,15.43
2024-05-09T20:58:38.418Z,15.43
2024-05-09T21:01:15.845Z,15.32
2024-05-09T21:03:48.930Z,15.18
2024-05-09T21:06:24.318Z,15.08
2024-05-09T21:08:59.527Z,15.15
2024-05-09T21:11:34.902Z,15.05
2024-05-09T21:14:07.536Z,15.02
2024-05-09T21:16:42.716Z,14.92
2024-05-09T21:19:15.493Z,14.88
2024-05-09T21:21:51.902Z,14.87
2024-05-09T21:24:28.202Z,14.84
2024-05-09T21:27:03.329Z,14.77
2024-05-09T21:29:35.852Z,14.72
2024-05-09T21:32:11.478Z,14.69
2024-05-09T21:34:44.057Z,14.68
2024-05-09T21:37:19.332Z,14.67
2024-05-09T21:39:54.648Z,14.65
2024-05-09T21:42:29.825Z,14.52
2024-05-09T21:45:02.349Z,14.44
2024-05-09T21:47:37.774Z,14.55
2024-05-09T21:50:18.642Z,14.60
2024-05-09T21:52:58.477Z,14.45
2024-05-09T21:55:33.647Z,14.40
2024-05-09T21:58:08.818Z,14.17
2024-05-09T22:00:43.584Z,14.13
2024-05-09T22:03:18.906Z,14.14
2024-05-09T22:05:51.549Z,14.07
2024-05-09T22:08:26.724Z,14.12
2024-05-09T22:11:02.080Z,13.99
2024-05-09T22:13:37.331Z,13.86
2024-05-09T22:16:09.940Z,13.84
2024-05-09T22:18:45.326Z,13.77
2024-05-09T22:21:17.872Z,13.84
2024-05-09T22:23:53.184Z,13.99
2024-05-09T22:26:28.314Z,13.91
2024-05-09T22:29:03.488Z,13.76
2024-05-09T22:31:36.128Z,13.72
2024-05-09T22:34:11.402Z,13.59
2024-05-09T22:36:46.077Z,13.55
2024-05-09T22:39:23.247Z,13.43
2024-05-09T22:41:58.397Z,13.43
2024-05-09T22:44:34.079Z,13.51
2024-05-09T22:47:06.707Z,13.41
2024-05-09T22:49:41.914Z,13.29
2024-05-09T22:52:14.555Z,13.23
2024-05-09T22:54:49.776Z,13.21
2024-05-09T22:57:25.029Z,13.25
2024-05-09T23:00:00.270Z,13.21
2024-05-09T23:02:32.750Z,13.18
2024-05-09T23:05:08.516Z,13.14
2024-05-09T23:07:41.103Z,13.09
2024-05-09T23:10:21.480Z,13.15
2024-05-09T23:13:03.888Z,13.02
2024-05-09T23:15:40.187Z,12.95
2024-05-09T23:18:12.956Z,12.84
2024-05-09T23:20:48.268Z,12.76
2024-05-09T23:23:21.257Z,12.80
2024-05-09T23:25:56.409Z,12.89
2024-05-09T23:28:31.942Z,12.92
2024-05-09T23:31:07.933Z,12.87
2024-05-09T23:33:45.690Z,12.77
2024-05-09T23:36:21.000Z,12.74
2024-05-09T23:38:53.539Z,12.63
2024-05-09T23:41:29.041Z,12.53
2024-05-09T23:44:04.474Z,12.50
2024-05-09T23:46:39.844Z,12.47
2024-05-09T23:49:12.456Z,12.41
2024-05-09T23:51:47.749Z,12.41
2024-05-09T23:54:20.360Z,12.43
2024-05-09T23:56:55.628Z,12.50
2024-05-09T23:59:31.869Z,12.54
